createdAt,value
2023-05-15T00:01:09.450Z,9.40
2023-05-15T00:03:37.034Z,9.30
2023-05-15T00:06:04.921Z,9.30
2023-05-15T00:08:32.585Z,9.50
2023-05-15T00:11:01.916Z,9.40
2023-05-15T00:13:30.173Z,9.30
2023-05-15T00:15:57.849Z,9.40
2023-05-15T00:18:25.367Z,9.30
2023-05-15T00:20:53.486Z,9.10
2023-05-15T00:23:20.996Z,9.30
2023-05-15T00:25:48.514Z,9.30
2023-05-15T00:28:15.977Z,9.30
2023-05-15T00:30:43.391Z,9.30
2023-05-15T00:33:10.888Z,9.20
2023-05-15T00:35:38.550Z,9.30
2023-05-15T00:38:06.067Z,9.20
2023-05-15T00:40:36.179Z,9.30
2023-05-15T00:43:04.722Z,9.20
2023-05-15T00:45:32.561Z,9.10
2023-05-15T00:48:01.762Z,9.10
2023-05-15T00:50:29.798Z,9.10
2023-05-15T00:52:57.698Z,9.20
2023-05-15T00:55:27.219Z,9.10
2023-05-15T00:57:56.280Z,9.00
2023-05-15T01:00:24.496Z,9.20
2023-05-15T01:02:52.699Z,9.00
2023-05-15T01:05:20.355Z,9.00
2023-05-15T01:08:02.778Z,8.90
2023-05-15T01:10:30.453Z,8.90
2023-05-15T01:12:59.485Z,8.90
2023-05-15T01:15:27.111Z,8.80
2023-05-15T01:17:54.703Z,8.60
2023-05-15T01:20:23.042Z,8.60
2023-05-15T01:23:02.652Z,8.60
2023-05-15T01:25:36.076Z,8.60
2023-05-15T01:28:12.144Z,8.60
2023-05-15T01:30:42.911Z,8.60
2023-05-15T01:33:23.307Z,8.70
2023-05-15T01:36:01.518Z,8.60
2023-05-15T01:38:46.445Z,8.50
2023-05-15T01:41:26.813Z,8.60
2023-05-15T01:44:17.070Z,8.50
2023-05-15T01:46:48.767Z,8.40
2023-05-15T01:49:19.647Z,8.50
2023-05-15T01:51:51.066Z,8.50
2023-05-15T01:54:20.897Z,8.50
2023-05-15T01:56:48.819Z,8.30
2023-05-15T01:59:17.984Z,8.60
2023-05-15T02:01:46.847Z,8.60
2023-05-15T02:04:15.396Z,8.50
2023-05-15T02:06:43.562Z,8.30
2023-05-15T02:09:11.342Z,8.40
2023-05-15T02:11:39.107Z,8.50
2023-05-15T02:14:09.250Z,8.40
2023-05-15T02:16:37.024Z,8.60
2023-05-15T02:19:04.542Z,8.40
2023-05-15T02:21:32.117Z,8.50
2023-05-15T02:23:59.661Z,8.40
2023-05-15T02:26:39.046Z,8.50
2023-05-15T02:29:46.135Z,8.30
2023-05-15T02:32:25.451Z,8.10
2023-05-15T02:34:59.105Z,8.20
2023-05-15T02:37:30.828Z,8.10
2023-05-15T02:39:59.840Z,8.10
2023-05-15T02:42:29.569Z,8.00
2023-05-15T02:44:58.164Z,8.00
2023-05-15T02:47:26.807Z,7.90
2023-05-15T02:49:55.620Z,7.80
2023-05-15T02:52:26.023Z,7.90
2023-05-15T02:54:53.669Z,7.90
2023-05-15T02:57:21.093Z,8.00
2023-05-15T02:59:48.615Z,7.80
2023-05-15T03:02:16.059Z,7.70
2023-05-15T03:04:43.747Z,7.70
2023-05-15T03:07:11.406Z,7.80
2023-05-15T03:09:38.832Z,7.70
2023-05-15T03:12:07.129Z,7.60
2023-05-15T03:14:34.693Z,7.70
2023-05-15T03:17:02.218Z,7.70
2023-05-15T03:19:29.780Z,7.60
2023-05-15T03:21:57.237Z,7.60
2023-05-15T03:24:24.734Z,7.50
2023-05-15T03:26:52.303Z,7.50
2023-05-15T03:29:20.570Z,7.40
2023-05-15T03:31:48.275Z,7.30
2023-05-15T03:34:15.796Z,7.40
2023-05-15T03:36:43.269Z,7.20
2023-05-15T03:39:11.472Z,7.30
2023-05-15T03:41:38.928Z,7.30
2023-05-15T03:44:06.348Z,7.20
2023-05-15T03:46:33.876Z,7.10
2023-05-15T03:49:02.586Z,7.00
2023-05-15T03:51:30.084Z,7.00
2023-05-15T03:53:57.967Z,6.90
2023-05-15T03:56:25.520Z,7.00
2023-05-15T03:58:53.800Z,7.00
2023-05-15T04:01:21.299Z,7.00
2023-05-15T04:03:48.715Z,7.00
2023-05-15T04:06:16.195Z,7.00
2023-05-15T04:08:43.845Z,7.00
2023-05-15T04:11:12.296Z,7.00
2023-05-15T04:13:39.744Z,7.10
2023-05-15T04:16:08.502Z,7.20
2023-05-15T04:18:36.135Z,7.20
2023-05-15T04:21:03.900Z,7.10
2023-05-15T04:23:31.450Z,7.10
2023-05-15T04:25:59.531Z,7.10
2023-05-15T04:30:54.426Z,7.00
2023-05-15T04:33:21.839Z,7.10
2023-05-15T04:35:49.338Z,7.00
2023-05-15T04:38:17.015Z,7.20
2023-05-15T04:40:44.572Z,7.20
2023-05-15T04:43:12.168Z,7.40
2023-05-15T04:45:39.700Z,7.30
2023-05-15T04:48:07.234Z,7.30
2023-05-15T04:50:34.788Z,7.30
2023-05-15T04:53:02.216Z,7.30
2023-05-15T04:55:30.396Z,7.30
2023-05-15T04:57:59.149Z,7.40
2023-05-15T05:00:27.107Z,7.40
2023-05-15T05:02:54.609Z,7.40
2023-05-15T05:05:22.294Z,7.50
2023-05-15T05:07:51.535Z,7.40
2023-05-15T05:10:19.084Z,7.50
2023-05-15T05:12:46.560Z,7.30
2023-05-15T05:15:14.140Z,7.20
2023-05-15T05:17:41.552Z,7.30
2023-05-15T05:20:12.460Z,7.40
2023-05-15T05:22:40.978Z,7.20
2023-05-15T05:25:08.736Z,7.20
2023-05-15T05:27:36.223Z,7.20
2023-05-15T05:30:03.960Z,7.20
2023-05-15T05:32:31.538Z,7.30
2023-05-15T05:34:59.038Z,7.40
2023-05-15T05:37:26.695Z,7.40
2023-05-15T05:39:54.915Z,7.50
2023-05-15T05:42:22.387Z,7.60
2023-05-15T05:44:49.864Z,7.50
2023-05-15T05:47:17.349Z,7.60
2023-05-15T05:49:48.107Z,7.60
2023-05-15T05:52:16.726Z,7.70
2023-05-15T05:54:46.468Z,7.70
2023-05-15T05:57:14.536Z,7.70
2023-05-15T05:59:42.246Z,7.80
2023-05-15T06:02:10.208Z,7.80
2023-05-15T06:04:37.822Z,7.90
2023-05-15T06:07:05.382Z,7.90
2023-05-15T06:09:32.906Z,7.90
2023-05-15T06:12:00.976Z,7.80
2023-05-15T06:14:28.426Z,7.80
2023-05-15T06:16:56.030Z,7.80
2023-05-15T06:19:23.548Z,8.00
2023-05-15T06:21:51.394Z,8.10
2023-05-15T06:24:18.815Z,8.10
2023-05-15T06:26:46.494Z,8.20
2023-05-15T06:29:13.880Z,8.30
2023-05-15T06:31:41.357Z,8.40
2023-05-15T06:34:08.766Z,8.40
2023-05-15T06:36:36.301Z,8.30
2023-05-15T06:39:03.803Z,8.40
2023-05-15T06:41:32.398Z,8.50
2023-05-15T06:43:59.962Z,8.60
2023-05-15T06:46:27.445Z,8.50
2023-05-15T06:48:54.912Z,8.60
2023-05-15T06:51:22.383Z,8.70
2023-05-15T06:53:49.826Z,8.60
2023-05-15T06:56:17.278Z,8.70
2023-05-15T06:58:44.720Z,8.70
2023-05-15T07:01:12.291Z,8.80
2023-05-15T07:03:40.113Z,8.90
2023-05-15T07:06:07.613Z,8.90
2023-05-15T07:08:35.332Z,8.90
2023-05-15T07:11:02.857Z,8.90
2023-05-15T07:13:30.364Z,9.00
2023-05-15T07:15:58.115Z,9.10
2023-05-15T07:18:25.845Z,9.10
2023-05-15T07:20:53.365Z,9.20
2023-05-15T07:23:20.775Z,9.20
2023-05-15T07:25:48.818Z,9.40
2023-05-15T07:28:16.336Z,9.40
2023-05-15T07:30:43.908Z,9.40
2023-05-15T07:33:11.366Z,9.50
2023-05-15T07:35:38.799Z,9.40
2023-05-15T07:38:06.280Z,9.40
2023-05-15T07:40:33.776Z,9.60
2023-05-15T07:43:01.215Z,9.60
2023-05-15T07:45:28.976Z,9.60
2023-05-15T07:47:57.315Z,9.70
2023-05-15T07:50:24.902Z,9.70
2023-05-15T07:52:52.394Z,9.80
2023-05-15T07:55:19.904Z,9.90
2023-05-15T07:57:53.507Z,9.90
2023-05-15T08:00:22.018Z,9.80
2023-05-15T08:02:49.778Z,9.90
2023-05-15T08:05:17.376Z,10.10
2023-05-15T08:07:45.209Z,10.00
2023-05-15T08:10:12.823Z,10.10
2023-05-15T08:12:46.184Z,10.00
2023-05-15T08:15:14.521Z,10.10
2023-05-15T08:17:42.064Z,10.30
2023-05-15T08:20:10.114Z,10.50
2023-05-15T08:22:37.558Z,10.60
2023-05-15T08:25:06.709Z,10.80
2023-05-15T08:27:34.333Z,10.80
2023-05-15T08:30:01.929Z,11.00
2023-05-15T08:32:29.411Z,11.20
2023-05-15T08:34:58.160Z,11.20
2023-05-15T08:37:25.859Z,11.30
2023-05-15T08:39:53.382Z,11.40
2023-05-15T08:42:40.204Z,11.40
2023-05-15T08:45:08.381Z,11.40
2023-05-15T08:47:40.565Z,11.20
2023-05-15T08:50:14.926Z,11.20
2023-05-15T08:52:49.517Z,11.30
2023-05-15T08:55:17.951Z,11.30
2023-05-15T08:57:47.742Z,11.50
2023-05-15T09:00:15.862Z,11.70
2023-05-15T09:02:43.501Z,11.70
2023-05-15T09:05:11.201Z,11.80
2023-05-15T09:07:45.014Z,11.70
2023-05-15T09:10:13.817Z,11.70
2023-05-15T09:12:47.081Z,11.40
2023-05-15T09:15:21.932Z,11.50
2023-05-15T09:17:50.681Z,11.60
2023-05-15T09:20:33.152Z,11.80
2023-05-15T09:23:02.758Z,12.10
2023-05-15T09:25:39.111Z,12.30
2023-05-15T09:28:08.906Z,12.60
2023-05-15T09:30:41.735Z,12.60
2023-05-15T09:33:09.985Z,12.60
2023-05-15T09:35:38.826Z,12.50
2023-05-15T09:38:11.812Z,12.00
2023-05-15T09:40:40.981Z,11.80
2023-05-15T09:43:13.672Z,11.40
2023-05-15T09:45:41.176Z,11.00
2023-05-15T09:48:09.996Z,11.20
2023-05-15T09:50:39.711Z,11.30
2023-05-15T09:53:11.236Z,11.50
2023-05-15T09:55:38.849Z,11.40
2023-05-15T09:58:11.229Z,12.30
2023-05-15T10:00:47.660Z,12.90
2023-05-15T10:03:21.010Z,13.80
2023-05-15T10:05:48.773Z,13.40
2023-05-15T10:08:25.948Z,13.30
2023-05-15T10:10:54.302Z,12.90
2023-05-15T10:13:22.955Z,13.50
2023-05-15T10:15:51.403Z,13.50
2023-05-15T10:18:22.056Z,13.70
2023-05-15T10:20:49.969Z,13.50
2023-05-15T10:23:19.016Z,12.90
2023-05-15T10:26:08.803Z,12.70
2023-05-15T10:28:37.704Z,12.70
2023-05-15T10:31:05.876Z,12.90
2023-05-15T10:33:37.049Z,13.50
2023-05-15T10:36:05.662Z,14.10
2023-05-15T10:38:34.231Z,14.80
2023-05-15T10:41:15.703Z,14.60
2023-05-15T10:43:45.896Z,13.70
2023-05-15T10:46:14.909Z,13.40
2023-05-15T10:48:42.935Z,13.50
2023-05-15T10:51:25.454Z,13.60
2023-05-15T10:53:53.485Z,13.40
2023-05-15T10:56:21.458Z,13.00
2023-05-15T10:58:50.727Z,13.20
2023-05-15T11:01:28.117Z,13.70
2023-05-15T11:04:09.152Z,13.70
2023-05-15T11:06:38.548Z,12.90
2023-05-15T11:09:27.180Z,12.80
2023-05-15T11:11:57.370Z,13.20
2023-05-15T11:14:30.000Z,13.60
2023-05-15T11:16:58.414Z,14.00
2023-05-15T11:19:36.045Z,14.60
2023-05-15T11:22:09.638Z,14.60
2023-05-15T11:24:52.067Z,14.70
2023-05-15T11:27:26.810Z,15.30
2023-05-15T11:30:23.429Z,15.50
2023-05-15T11:33:00.439Z,15.40
2023-05-15T11:35:29.309Z,15.10
2023-05-15T11:38:03.633Z,14.40
2023-05-15T11:40:33.498Z,13.80
2023-05-15T11:43:19.497Z,13.70
2023-05-15T11:45:56.268Z,13.80
2023-05-15T11:48:33.304Z,14.00
2023-05-15T11:51:05.569Z,14.50
2023-05-15T11:53:33.841Z,14.70
2023-05-15T11:56:04.300Z,14.40
2023-05-15T11:58:32.035Z,13.90
2023-05-15T12:00:59.453Z,13.70
2023-05-15T12:03:34.003Z,13.00
2023-05-15T12:06:02.940Z,12.40
2023-05-15T12:08:40.146Z,12.60
2023-05-15T12:11:08.063Z,12.80
2023-05-15T12:13:35.719Z,13.10
2023-05-15T12:16:04.601Z,13.20
2023-05-15T12:18:34.090Z,13.40
2023-05-15T12:21:01.724Z,13.10
2023-05-15T12:23:29.139Z,12.90
2023-05-15T12:26:01.304Z,12.30
2023-05-15T12:28:30.592Z,11.90
2023-05-15T12:30:58.571Z,11.80
2023-05-15T12:33:26.187Z,11.80
2023-05-15T12:36:01.267Z,11.90
2023-05-15T12:38:29.334Z,12.00
2023-05-15T12:40:57.628Z,12.30
2023-05-15T12:43:26.168Z,12.30
2023-05-15T12:45:55.160Z,12.30
2023-05-15T12:48:23.028Z,12.40
2023-05-15T12:50:50.570Z,12.60
2023-05-15T12:53:18.184Z,12.70
2023-05-15T12:55:47.117Z,12.70
2023-05-15T12:58:18.816Z,12.90
2023-05-15T13:00:47.959Z,13.10
2023-05-15T13:03:15.736Z,13.20
2023-05-15T13:05:45.532Z,13.30
2023-05-15T13:08:17.646Z,13.70
2023-05-15T13:10:46.247Z,14.10
2023-05-15T13:13:14.312Z,14.20
2023-05-15T13:15:45.231Z,14.30
2023-05-15T13:18:14.846Z,14.50
2023-05-15T13:20:51.716Z,14.30
2023-05-15T13:23:20.421Z,14.20
2023-05-15T13:25:47.985Z,14.00
2023-05-15T13:28:15.956Z,13.90
2023-05-15T13:30:43.748Z,13.70
2023-05-15T13:33:12.648Z,13.80
2023-05-15T13:35:43.031Z,13.50
2023-05-15T13:38:11.812Z,13.50
2023-05-15T13:40:39.693Z,13.40
2023-05-15T13:43:07.179Z,13.50
2023-05-15T13:45:34.850Z,13.50
2023-05-15T13:48:02.442Z,13.60
2023-05-15T13:50:30.135Z,13.50
2023-05-15T13:52:57.603Z,13.20
2023-05-15T13:55:26.139Z,13.20
2023-05-15T13:57:53.594Z,13.10
2023-05-15T14:00:21.414Z,13.20
2023-05-15T14:02:48.860Z,13.20
2023-05-15T14:05:17.293Z,13.30
2023-05-15T14:07:45.008Z,13.30
2023-05-15T14:10:12.771Z,13.50
2023-05-15T14:12:40.929Z,13.70
2023-05-15T14:15:08.985Z,13.80
2023-05-15T14:17:36.467Z,14.00
2023-05-15T14:20:05.279Z,14.20
2023-05-15T14:22:33.234Z,14.20
2023-05-15T14:25:00.758Z,14.30
2023-05-15T14:27:28.194Z,13.90
2023-05-15T14:29:56.837Z,14.00
2023-05-15T14:32:24.939Z,14.20
2023-05-15T14:34:52.458Z,14.30
2023-05-15T14:37:19.900Z,14.30
2023-05-15T14:39:47.370Z,14.20
2023-05-15T14:42:15.013Z,14.20
2023-05-15T14:44:42.518Z,13.90
2023-05-15T14:47:14.874Z,13.90
2023-05-15T14:49:43.041Z,13.70
2023-05-15T14:52:11.543Z,13.70
2023-05-15T14:54:40.023Z,13.70
2023-05-15T14:57:08.130Z,13.70
2023-05-15T14:59:35.650Z,13.90
2023-05-15T15:02:03.252Z,14.10
2023-05-15T15:04:34.346Z,14.10
2023-05-15T15:07:05.382Z,13.90
2023-05-15T15:09:32.901Z,13.70
2023-05-15T15:12:00.587Z,13.40
2023-05-15T15:14:28.019Z,13.50
2023-05-15T15:16:55.479Z,13.50
2023-05-15T15:19:23.636Z,13.80
2023-05-15T15:21:51.266Z,13.90
2023-05-15T15:24:18.710Z,14.00
2023-05-15T15:26:46.228Z,14.20
2023-05-15T15:29:13.640Z,14.40
2023-05-15T15:31:41.166Z,14.50
2023-05-15T15:34:09.072Z,14.30
2023-05-15T15:36:38.713Z,14.30
2023-05-15T15:39:06.323Z,14.40
2023-05-15T15:41:37.207Z,14.50
2023-05-15T15:44:05.589Z,14.70
2023-05-15T15:46:33.299Z,14.90
2023-05-15T15:49:01.129Z,15.20
2023-05-15T15:51:28.686Z,15.10
2023-05-15T15:53:56.266Z,15.00
2023-05-15T15:56:23.696Z,14.90
2023-05-15T15:58:51.291Z,14.80
2023-05-15T16:01:19.097Z,14.60
2023-05-15T16:03:46.745Z,14.40
2023-05-15T16:06:14.231Z,14.40
2023-05-15T16:08:41.761Z,14.50
2023-05-15T16:11:09.168Z,14.50
2023-05-15T16:13:37.105Z,14.30
2023-05-15T16:16:05.490Z,14.30
2023-05-15T16:18:32.999Z,14.20
2023-05-15T16:21:00.738Z,14.10
2023-05-15T16:23:28.236Z,14.30
2023-05-15T16:25:55.737Z,14.50
2023-05-15T16:28:23.212Z,14.50
2023-05-15T16:30:51.365Z,14.60
2023-05-15T16:33:19.298Z,14.50
2023-05-15T16:35:47.387Z,14.70
2023-05-15T16:38:15.704Z,14.60
2023-05-15T16:40:43.369Z,14.60
2023-05-15T16:43:11.261Z,14.40
2023-05-15T16:45:38.905Z,14.40
2023-05-15T16:48:06.614Z,14.30
2023-05-15T16:50:36.573Z,14.50
2023-05-15T16:53:05.137Z,14.50
2023-05-15T16:55:32.836Z,14.60
2023-05-15T16:58:00.484Z,14.30
2023-05-15T17:00:28.261Z,14.30
2023-05-15T17:02:56.118Z,14.20
2023-05-15T17:05:23.747Z,14.10
2023-05-15T17:07:56.441Z,14.10
2023-05-15T17:10:24.372Z,14.10
2023-05-15T17:12:52.144Z,14.10
2023-05-15T17:15:19.686Z,14.00
2023-05-15T17:17:47.145Z,13.90
2023-05-15T17:20:15.192Z,13.90
2023-05-15T17:22:42.815Z,14.00
2023-05-15T17:25:10.378Z,14.10
2023-05-15T17:27:41.610Z,14.10
2023-05-15T17:30:10.629Z,14.10
2023-05-15T17:32:39.339Z,13.90
2023-05-15T17:35:08.215Z,13.80
2023-05-15T17:37:35.805Z,13.70
2023-05-15T17:40:03.669Z,13.80
2023-05-15T17:42:31.158Z,13.80
2023-05-15T17:44:58.976Z,13.60
2023-05-15T17:47:26.588Z,13.60
2023-05-15T17:49:54.102Z,13.70
2023-05-15T17:52:21.666Z,13.80
2023-05-15T17:54:49.352Z,13.90
2023-05-15T17:57:16.988Z,13.80
2023-05-15T17:59:44.695Z,13.80
2023-05-15T18:02:12.266Z,13.70
2023-05-15T18:04:39.836Z,13.70
2023-05-15T18:07:07.322Z,13.70
2023-05-15T18:09:34.956Z,13.50
2023-05-15T18:12:02.523Z,13.60
2023-05-15T18:14:29.929Z,13.70
2023-05-15T18:16:57.607Z,13.70
2023-05-15T18:19:25.077Z,13.70
2023-05-15T18:21:52.793Z,13.50
2023-05-15T18:24:20.370Z,13.40
2023-05-15T18:26:47.987Z,13.40
2023-05-15T18:29:15.499Z,13.60
2023-05-15T18:31:43.048Z,13.50
2023-05-15T18:34:10.744Z,13.30
2023-05-15T18:36:38.275Z,13.40
2023-05-15T18:39:05.792Z,13.30
2023-05-15T18:41:33.299Z,13.20
2023-05-15T18:44:00.972Z,13.20
2023-05-15T18:46:30.500Z,13.20
2023-05-15T18:48:57.970Z,13.10
2023-05-15T18:51:25.486Z,13.00
2023-05-15T18:53:52.956Z,12.80
2023-05-15T18:56:21.613Z,12.80
2023-05-15T18:58:49.113Z,12.80
2023-05-15T19:01:17.107Z,12.40
2023-05-15T19:03:44.728Z,12.20
2023-05-15T19:06:13.501Z,12.10
2023-05-15T19:08:41.150Z,12.20
2023-05-15T19:11:08.853Z,12.10
2023-05-15T19:13:36.555Z,12.10
2023-05-15T19:16:06.048Z,12.00
2023-05-15T19:18:33.892Z,12.10
2023-05-15T19:21:01.672Z,12.20
2023-05-15T19:23:29.414Z,12.20
2023-05-15T19:25:56.982Z,12.20
2023-05-15T19:28:24.452Z,12.20
2023-05-15T19:30:51.960Z,12.10
2023-05-15T19:33:19.733Z,12.10
2023-05-15T19:35:47.790Z,12.00
2023-05-15T19:38:15.377Z,12.00
2023-05-15T19:40:46.170Z,11.90
2023-05-15T19:43:14.783Z,11.80
2023-05-15T19:45:42.948Z,11.90
2023-05-15T19:48:10.469Z,11.90
2023-05-15T19:50:41.233Z,11.70
2023-05-15T19:53:08.872Z,11.70
2023-05-15T19:55:36.702Z,11.70
2023-05-15T19:58:04.265Z,11.70
2023-05-15T20:00:32.528Z,11.70
2023-05-15T20:03:01.173Z,11.50
2023-05-15T20:05:28.726Z,11.60
2023-05-15T20:07:56.222Z,11.60
2023-05-15T20:12:51.694Z,11.60
2023-05-15T20:15:19.201Z,11.60
2023-05-15T20:17:46.872Z,11.70
2023-05-15T20:20:15.062Z,11.50
2023-05-15T20:22:44.708Z,11.50
2023-05-15T20:25:12.209Z,11.60
2023-05-15T20:27:39.743Z,11.50
2023-05-15T20:30:07.936Z,11.50
2023-05-15T20:32:36.369Z,11.60
2023-05-15T20:35:04.521Z,11.60
2023-05-15T20:37:31.982Z,11.60
2023-05-15T20:40:00.174Z,11.60
2023-05-15T20:42:28.524Z,11.60
2023-05-15T20:44:56.027Z,11.50
2023-05-15T20:47:23.692Z,11.50
2023-05-15T20:49:51.189Z,11.40
2023-05-15T20:52:20.839Z,11.40
2023-05-15T20:54:48.833Z,11.40
2023-05-15T20:57:16.358Z,11.50
2023-05-15T20:59:43.852Z,11.50
2023-05-15T21:02:11.297Z,11.60
2023-05-15T21:04:39.365Z,11.60
2023-05-15T21:07:07.190Z,11.60
2023-05-15T21:09:34.693Z,11.50
2023-05-15T21:12:03.914Z,11.50
2023-05-15T21:14:31.429Z,11.50
2023-05-15T21:16:58.848Z,11.50
2023-05-15T21:19:26.348Z,11.50
2023-05-15T21:21:53.772Z,11.30
2023-05-15T21:24:21.429Z,11.30
2023-05-15T21:26:48.921Z,11.20
2023-05-15T21:29:16.450Z,11.20
2023-05-15T21:31:44.044Z,11.20
2023-05-15T21:34:11.752Z,11.20
2023-05-15T21:36:39.251Z,11.00
2023-05-15T21:39:06.828Z,10.90
2023-05-15T21:41:34.780Z,10.90
2023-05-15T21:44:02.330Z,10.80
2023-05-15T21:46:29.843Z,10.80
2023-05-15T21:48:58.652Z,10.80
2023-05-15T21:51:26.215Z,10.70
2023-05-15T21:53:53.697Z,10.80
2023-05-15T21:56:21.642Z,10.70
2023-05-15T21:58:49.088Z,10.70
2023-05-15T22:01:17.237Z,10.70
2023-05-15T22:03:45.365Z,10.60
2023-05-15T22:06:13.009Z,10.60
2023-05-15T22:08:40.569Z,10.50
2023-05-15T22:11:07.988Z,10.50
2023-05-15T22:13:35.859Z,10.60
2023-05-15T22:16:03.338Z,10.70
2023-05-15T22:18:31.571Z,10.70
2023-05-15T22:20:59.213Z,10.70
2023-05-15T22:23:26.961Z,10.60
2023-05-15T22:25:54.410Z,10.60
2023-05-15T22:28:21.868Z,10.60
2023-05-15T22:30:49.425Z,10.60
2023-05-15T22:33:16.978Z,10.60
2023-05-15T22:35:44.612Z,10.50
2023-05-15T22:38:12.340Z,10.40
2023-05-15T22:40:39.819Z,10.30
2023-05-15T22:43:07.249Z,10.20
2023-05-15T22:45:34.939Z,10.20
2023-05-15T22:48:02.807Z,10.20
2023-05-15T22:50:31.639Z,10.20
2023-05-15T22:52:59.062Z,10.20
2023-05-15T22:55:26.962Z,10.30
2023-05-15T22:57:54.560Z,10.30
2023-05-15T23:00:22.210Z,10.30
2023-05-15T23:02:50.049Z,10.20
2023-05-15T23:05:17.588Z,10.10
2023-05-15T23:08:45.469Z,10.00
2023-05-15T23:11:12.922Z,9.80
2023-05-15T23:13:40.400Z,9.90
2023-05-15T23:16:07.903Z,9.90
2023-05-15T23:18:35.467Z,9.80
2023-05-15T23:21:03.278Z,9.70
2023-05-15T23:23:30.758Z,9.70
2023-05-15T23:25:58.297Z,9.70
2023-05-15T23:28:26.007Z,9.60
2023-05-15T23:30:54.162Z,9.60
2023-05-15T23:33:22.691Z,9.60
2023-05-15T23:35:50.157Z,9.60
2023-05-15T23:38:17.592Z,9.70
2023-05-15T23:40:45.149Z,9.70
2023-05-15T23:43:12.558Z,9.70
2023-05-15T23:45:40.015Z,9.80
2023-05-15T23:48:07.497Z,9.80
2023-05-15T23:50:35.303Z,9.70
2023-05-15T23:53:03.002Z,9.70
2023-05-15T23:55:30.572Z,9.70
2023-05-15T23:57:58.833Z,9.70
